Time;durP1;ratioP1;P1;durP2;ratioP2;P2;SDS_P1;SDS_P2;PMS_P1;PMS_P2;Temp;Humidity;BMP_temperature;BMP_pressure;BME280_temperature;BME280_humidity;BME280_pressure;Samples;Min_cycle;Max_cycle;Signal;HPM_P1;HPM_P2
2023/03/08 00:01:49;;;;;;;2.33;2.13;;;13.60;46.60;;;;;;4979052;28;20527;-83
2023/03/08 00:04:17;;;;;;;3.50;2.50;;;13.60;46.60;;;;;;4979267;28;20477;-82
2023/03/08 00:06:45;;;;;;;2.50;2.10;;;13.60;46.60;;;;;;4979843;28;20518;-84
2023/03/08 00:09:14;;;;;;;3.20;2.00;;;13.50;46.60;;;;;;4975460;28;20454;-82
2023/03/08 00:11:42;;;;;;;2.57;2.37;;;13.50;46.50;;;;;;4978258;28;20484;-83
2023/03/08 00:14:11;;;;;;;4.13;2.33;;;13.50;46.70;;;;;;4977234;28;20454;-83
2023/03/08 00:16:39;;;;;;;5.23;2.23;;;13.50;46.70;;;;;;4973829;28;20454;-83
2023/03/08 00:19:07;;;;;;;3.50;2.23;;;13.50;46.70;;;;;;4974337;28;20461;-83
2023/03/08 00:21:35;;;;;;;2.30;2.10;;;13.50;46.80;;;;;;4976581;28;20537;-82
2023/03/08 00:24:03;;;;;;;3.40;2.03;;;13.40;46.70;;;;;;4977417;28;20451;-83
2023/03/08 00:26:33;;;;;;;3.50;2.30;;;13.40;46.90;;;;;;4979845;28;20545;-83
2023/03/08 00:29:01;;;;;;;3.10;2.13;;;13.40;46.80;;;;;;4987569;28;20562;-81
2023/03/08 00:31:29;;;;;;;2.17;1.93;;;13.40;46.80;;;;;;4983091;28;20473;-82
2023/03/08 00:33:57;;;;;;;2.30;2.20;;;13.40;47.00;;;;;;4969587;28;20457;-81
2023/03/08 00:36:25;;;;;;;2.17;1.70;;;13.40;47.00;;;;;;4964993;28;20541;-83
2023/03/08 00:38:53;;;;;;;2.17;1.90;;;13.40;46.90;;;;;;4985545;28;20452;-84
2023/03/08 00:41:21;;;;;;;4.40;2.00;;;13.40;47.00;;;;;;4983832;28;20477;-84
2023/03/08 00:43:51;;;;;;;2.20;1.90;;;13.40;47.10;;;;;;4990444;28;20450;-83
2023/03/08 00:46:19;;;;;;;2.07;1.90;;;13.40;47.00;;;;;;4976071;28;20466;-83
2023/03/08 00:48:47;;;;;;;4.57;2.53;;;13.30;47.00;;;;;;4984227;28;20481;-83
2023/03/08 00:51:15;;;;;;;2.20;2.00;;;13.30;46.90;;;;;;4971261;28;21019;-83
2023/03/08 00:53:44;;;;;;;2.20;2.00;;;13.30;47.00;;;;;;4979640;28;20449;-83
2023/03/08 00:56:12;;;;;;;2.93;2.37;;;13.30;47.10;;;;;;4977655;28;20516;-83
2023/03/08 00:58:41;;;;;;;4.80;2.47;;;13.30;47.10;;;;;;4969391;28;20517;-83
2023/03/08 01:01:13;;;;;;;2.70;2.40;;;13.30;47.10;;;;;;4981740;28;20470;-83
2023/03/08 01:03:41;;;;;;;2.10;1.90;;;13.20;47.00;;;;;;4973202;28;20461;-84
2023/03/08 01:06:10;;;;;;;2.80;2.13;;;13.20;47.20;;;;;;4973180;28;20505;-83
2023/03/08 01:08:40;;;;;;;4.57;2.30;;;13.20;47.20;;;;;;4974263;28;20549;-83
2023/03/08 01:11:16;;;;;;;2.97;2.07;;;13.20;47.20;;;;;;4974236;28;20482;-84
2023/03/08 01:13:44;;;;;;;1.93;1.83;;;13.20;47.20;;;;;;4978867;28;20481;-84
2023/03/08 01:16:18;;;;;;;2.50;1.83;;;13.20;47.30;;;;;;4979738;28;20478;-84
2023/03/08 01:18:46;;;;;;;2.10;1.90;;;13.20;47.20;;;;;;4980511;28;20450;-83
2023/03/08 01:21:14;;;;;;;2.97;2.00;;;13.10;47.20;;;;;;4978356;28;20480;-83
2023/03/08 01:23:42;;;;;;;2.13;1.90;;;13.10;47.40;;;;;;4980725;28;20462;-83
2023/03/08 01:26:12;;;;;;;2.40;2.20;;;13.10;47.20;;;;;;4979685;28;20557;-83
2023/03/08 01:28:40;;;;;;;2.03;1.80;;;13.10;47.40;;;;;;4979353;28;20455;-83
2023/03/08 01:31:08;;;;;;;2.40;2.07;;;13.10;47.30;;;;;;4977589;28;20554;-84
2023/03/08 01:33:38;;;;;;;4.77;2.23;;;13.10;47.30;;;;;;4975705;28;20455;-83
2023/03/08 01:36:07;;;;;;;6.90;2.37;;;13.10;47.40;;;;;;4983612;28;20533;-84
2023/03/08 01:38:35;;;;;;;2.70;1.80;;;13.10;47.40;;;;;;4982749;28;20458;-83
2023/03/08 01:41:04;;;;;;;1.80;1.70;;;13.10;47.50;;;;;;4967883;28;20492;-83
2023/03/08 01:43:33;;;;;;;1.60;1.50;;;13.00;47.40;;;;;;4974098;28;20542;-84
2023/03/08 01:46:07;;;;;;;3.80;2.03;;;13.00;47.50;;;;;;4971918;28;20474;-83
2023/03/08 01:48:36;;;;;;;2.37;2.00;;;13.00;47.40;;;;;;4975253;28;20485;-84
2023/03/08 01:51:08;;;;;;;1.80;1.67;;;13.00;47.40;;;;;;4978121;28;20458;-84
2023/03/08 01:53:36;;;;;;;2.27;1.80;;;13.00;47.40;;;;;;4975908;28;20502;-83
2023/03/08 01:56:05;;;;;;;3.47;2.00;;;13.00;47.50;;;;;;4976777;28;20478;-83
2023/03/08 01:58:33;;;;;;;1.97;1.70;;;13.00;48.20;;;;;;4974030;28;20461;-83
2023/03/08 02:01:02;;;;;;;2.33;1.63;;;13.00;47.40;;;;;;4976377;28;20477;-83
2023/03/08 02:03:29;;;;;;;1.97;1.60;;;12.90;47.60;;;;;;4970918;28;20462;-83
2023/03/08 02:05:57;;;;;;;2.20;1.60;;;12.90;47.40;;;;;;4977074;28;20468;-84
2023/03/08 02:08:27;;;;;;;2.20;1.97;;;12.90;47.40;;;;;;4977840;28;20446;-83
2023/03/08 02:10:55;;;;;;;3.10;1.73;;;12.90;47.50;;;;;;4983926;28;20476;-84
2023/03/08 02:13:23;;;;;;;2.20;1.83;;;12.90;47.50;;;;;;4981381;28;20466;-85
2023/03/08 02:15:53;;;;;;;1.50;1.40;;;12.90;47.40;;;;;;4971627;28;20473;-84
2023/03/08 02:18:21;;;;;;;1.77;1.67;;;12.90;47.50;;;;;;4968670;28;20439;-84
2023/03/08 02:20:51;;;;;;;2.93;1.90;;;12.80;47.40;;;;;;4974366;28;20476;-84
2023/03/08 02:23:21;;;;;;;2.53;1.70;;;12.80;47.60;;;;;;4975886;28;20477;-84
2023/03/08 02:25:51;;;;;;;2.17;1.90;;;12.80;47.60;;;;;;4972529;28;20474;-83
2023/03/08 02:28:20;;;;;;;1.60;1.50;;;12.80;47.50;;;;;;4981264;28;20454;-84
2023/03/08 02:30:48;;;;;;;2.53;1.67;;;12.80;47.60;;;;;;4981658;28;20450;-84
2023/03/08 02:33:16;;;;;;;1.90;1.80;;;12.80;47.60;;;;;;4978795;28;20458;-85
2023/03/08 02:35:45;;;;;;;1.83;1.70;;;12.80;47.50;;;;;;4971081;28;20476;-84
2023/03/08 02:38:14;;;;;;;1.87;1.63;;;12.80;47.60;;;;;;4970580;28;20485;-84
2023/03/08 02:40:43;;;;;;;2.20;1.90;;;12.70;47.60;;;;;;4974596;28;20488;-84
2023/03/08 02:43:11;;;;;;;1.93;1.80;;;12.70;47.60;;;;;;4972376;28;20461;-84
2023/03/08 02:45:39;;;;;;;2.00;1.80;;;12.70;47.50;;;;;;4974626;28;20539;-83
2023/03/08 02:48:07;;;;;;;2.13;1.80;;;12.70;47.50;;;;;;4974169;28;20454;-83
2023/03/08 02:50:36;;;;;;;1.97;1.87;;;12.70;47.50;;;;;;4971765;28;20480;-83
2023/03/08 02:53:04;;;;;;;1.70;1.60;;;12.70;47.60;;;;;;4965788;28;20459;-83
2023/03/08 02:55:34;;;;;;;1.67;1.40;;;12.60;47.60;;;;;;4977817;28;20485;-83
2023/03/08 02:58:04;;;;;;;1.83;1.63;;;12.70;47.70;;;;;;4975890;28;20549;-84
2023/03/08 03:00:33;;;;;;;3.90;2.30;;;12.70;47.70;;;;;;4975980;28;20459;-84
2023/03/08 03:03:01;;;;;;;1.80;1.60;;;12.60;47.60;;;;;;4970936;28;20466;-83
2023/03/08 03:05:29;;;;;;;1.90;1.80;;;12.60;47.70;;;;;;4968892;28;20479;-83
2023/03/08 03:07:58;;;;;;;2.23;1.60;;;12.60;47.70;;;;;;4972292;28;20477;-84
2023/03/08 03:10:26;;;;;;;2.90;1.70;;;12.60;47.80;;;;;;4973427;28;20461;-83
2023/03/08 03:12:54;;;;;;;1.87;1.70;;;12.60;47.70;;;;;;4976191;28;20537;-83
2023/03/08 03:15:23;;;;;;;2.17;1.87;;;12.60;47.70;;;;;;4968011;28;20467;-84
2023/03/08 03:17:51;;;;;;;3.17;1.90;;;12.60;47.80;;;;;;4974778;28;20449;-84
2023/03/08 03:20:19;;;;;;;2.07;1.87;;;12.60;47.80;;;;;;4975989;28;20513;-83
2023/03/08 03:22:47;;;;;;;1.73;1.63;;;12.60;48.40;;;;;;4974672;28;20478;-84
2023/03/08 03:25:15;;;;;;;2.10;1.70;;;12.50;47.80;;;;;;4974837;28;20470;-83
2023/03/08 03:27:43;;;;;;;1.70;1.60;;;12.50;47.80;;;;;;4972060;28;20475;-83
2023/03/08 03:30:12;;;;;;;3.90;2.07;;;12.50;47.80;;;;;;4972787;28;20447;-84
2023/03/08 03:32:41;;;;;;;1.50;1.40;;;12.50;47.90;;;;;;4974036;28;20455;-83
2023/03/08 03:35:10;;;;;;;1.67;1.57;;;12.50;47.90;;;;;;4975879;28;20451;-84
2023/03/08 03:37:38;;;;;;;1.50;1.40;;;12.50;47.80;;;;;;4984051;28;21046;-83
2023/03/08 03:40:07;;;;;;;1.80;1.60;;;12.50;47.80;;;;;;4986234;28;20458;-83
2023/03/08 03:42:35;;;;;;;1.60;1.50;;;12.50;47.90;;;;;;4975237;28;20512;-83
2023/03/08 03:45:04;;;;;;;1.60;1.50;;;12.50;47.90;;;;;;4978760;28;20485;-83
2023/03/08 03:47:32;;;;;;;5.07;1.70;;;12.50;47.90;;;;;;4977779;28;20458;-83
2023/03/08 03:50:02;;;;;;;2.30;1.83;;;12.40;48.00;;;;;;4978008;28;20466;-82
2023/03/08 03:52:30;;;;;;;1.87;1.77;;;12.40;47.90;;;;;;4976818;28;20537;-82
2023/03/08 03:54:58;;;;;;;4.50;2.07;;;12.40;47.90;;;;;;4973170;28;20484;-83
2023/03/08 03:57:26;;;;;;;2.70;1.53;;;12.40;47.90;;;;;;4977678;28;20479;-82
2023/03/08 03:59:55;;;;;;;1.70;1.60;;;12.40;48.00;;;;;;4978231;28;20457;-82
2023/03/08 04:02:23;;;;;;;2.47;1.90;;;12.40;48.00;;;;;;4975947;28;20474;-82
2023/03/08 04:04:51;;;;;;;1.63;1.40;;;12.40;47.90;;;;;;4984001;28;20481;-83
2023/03/08 04:07:20;;;;;;;1.90;1.80;;;12.40;48.00;;;;;;4980446;28;20545;-84
2023/03/08 04:09:48;;;;;;;4.40;2.00;;;12.40;48.00;;;;;;4981388;28;20461;-82
2023/03/08 04:12:16;;;;;;;1.60;1.50;;;12.40;48.10;;;;;;4971801;28;20811;-83
2023/03/08 04:14:44;;;;;;;2.00;1.50;;;12.40;48.10;;;;;;4978655;28;20470;-82
2023/03/08 04:17:13;;;;;;;1.63;1.53;;;12.30;48.10;;;;;;4982707;28;20541;-82
2023/03/08 04:19:41;;;;;;;1.63;1.53;;;12.30;48.00;;;;;;4983252;28;20453;-83
2023/03/08 04:22:09;;;;;;;1.70;1.60;;;12.30;48.10;;;;;;4982728;28;20471;-82
2023/03/08 04:24:38;;;;;;;1.70;1.60;;;12.40;48.10;;;;;;4977513;28;20481;-82
2023/03/08 04:27:06;;;;;;;1.80;1.70;;;12.30;48.10;;;;;;4987113;28;20477;-83
2023/03/08 04:29:35;;;;;;;1.87;1.77;;;12.30;48.10;;;;;;4979108;28;20454;-83
2023/03/08 04:32:03;;;;;;;1.80;1.70;;;12.30;48.20;;;;;;4981877;28;20459;-83
2023/03/08 04:34:31;;;;;;;1.97;1.87;;;12.30;48.20;;;;;;4979839;28;20478;-83
2023/03/08 04:36:59;;;;;;;2.03;1.93;;;12.30;48.20;;;;;;4984413;28;20484;-83
2023/03/08 04:39:27;;;;;;;1.30;1.30;;;12.30;48.20;;;;;;4979857;28;20464;-82
2023/03/08 04:41:56;;;;;;;2.07;1.77;;;12.30;48.10;;;;;;4970979;28;20487;-83
2023/03/08 04:44:24;;;;;;;1.60;1.50;;;12.30;48.20;;;;;;4974812;28;20489;-82
2023/03/08 04:46:52;;;;;;;2.07;1.97;;;12.30;48.10;;;;;;4982485;28;20464;-82
2023/03/08 04:49:21;;;;;;;2.50;1.90;;;12.20;48.20;;;;;;4980596;28;20881;-84
2023/03/08 04:51:49;;;;;;;1.40;1.30;;;12.20;48.30;;;;;;4978530;28;20451;-82
2023/03/08 04:54:17;;;;;;;1.87;1.47;;;12.20;48.30;;;;;;4979963;28;20473;-82
2023/03/08 04:56:45;;;;;;;3.00;1.60;;;12.20;48.20;;;;;;4972651;28;20476;-83
2023/03/08 04:59:15;;;;;;;1.97;1.80;;;12.20;48.20;;;;;;4981459;28;20450;-83
2023/03/08 05:01:43;;;;;;;1.90;1.70;;;12.20;48.20;;;;;;4979701;28;20469;-83
2023/03/08 05:04:11;;;;;;;1.60;1.50;;;12.20;48.30;;;;;;4975268;28;20462;-83
2023/03/08 05:06:39;;;;;;;1.67;1.57;;;12.20;48.30;;;;;;4983970;28;20455;-83
2023/03/08 05:09:08;;;;;;;1.80;1.70;;;12.20;48.30;;;;;;4976599;28;20459;-83
2023/03/08 05:11:36;;;;;;;2.30;1.73;;;12.20;48.30;;;;;;4978819;28;20481;-83
2023/03/08 05:14:04;;;;;;;1.67;1.57;;;12.20;48.30;;;;;;4978814;28;20462;-82
2023/03/08 05:16:34;;;;;;;1.70;1.60;;;12.20;48.40;;;;;;4980459;28;20482;-83
2023/03/08 05:19:02;;;;;;;1.90;1.80;;;12.20;48.40;;;;;;4972422;28;20458;-82
2023/03/08 05:21:30;;;;;;;1.90;1.80;;;12.20;48.20;;;;;;4981795;28;20458;-83
2023/03/08 05:23:59;;;;;;;1.70;1.60;;;12.10;48.20;;;;;;4978177;28;20561;-83
2023/03/08 05:26:27;;;;;;;2.20;2.00;;;12.10;48.20;;;;;;4976307;28;20470;-83
2023/03/08 05:28:55;;;;;;;2.30;2.10;;;12.10;48.30;;;;;;4977578;28;20461;-83
2023/03/08 05:31:23;;;;;;;2.10;2.00;;;12.10;48.20;;;;;;4975928;28;20545;-83
2023/03/08 05:33:52;;;;;;;1.60;1.50;;;12.10;48.20;;;;;;4979204;28;20442;-83
2023/03/08 05:36:20;;;;;;;1.70;1.60;;;12.10;48.30;;;;;;4981253;28;20485;-83
2023/03/08 05:38:52;;;;;;;1.83;1.70;;;12.10;48.20;;;;;;4972931;28;20485;-82
2023/03/08 05:41:20;;;;;;;4.00;1.73;;;12.10;48.30;;;;;;4978600;28;20479;-82
2023/03/08 05:43:47;;;;;;;1.87;1.67;;;12.10;48.30;;;;;;4980395;28;20484;-82
2023/03/08 05:46:17;;;;;;;1.73;1.63;;;12.10;48.40;;;;;;4978089;28;20484;-83
2023/03/08 05:48:45;;;;;;;1.70;1.60;;;12.00;48.30;;;;;;4979011;28;20458;-83
2023/03/08 05:51:15;;;;;;;6.80;2.63;;;12.00;48.30;;;;;;4977936;28;20459;-83
2023/03/08 05:53:44;;;;;;;2.23;2.03;;;12.00;48.40;;;;;;4981658;28;20454;-83
2023/03/08 05:56:13;;;;;;;1.67;1.57;;;12.00;48.30;;;;;;4975823;28;20490;-83
2023/03/08 05:58:41;;;;;;;1.90;1.80;;;12.00;48.30;;;;;;4985179;28;20457;-83
2023/03/08 06:01:12;;;;;;;1.77;1.67;;;12.00;48.40;;;;;;4980301;28;20451;-83
2023/03/08 06:03:40;;;;;;;1.90;1.80;;;12.00;48.40;;;;;;4978643;28;20481;-82
2023/03/08 06:06:08;;;;;;;2.73;1.80;;;12.00;48.50;;;;;;4979400;28;20482;-83
2023/03/08 06:08:38;;;;;;;2.10;1.90;;;12.00;48.50;;;;;;4979297;28;20463;-83
2023/03/08 06:11:05;;;;;;;2.30;2.10;;;12.00;48.50;;;;;;4970414;28;20482;-82
2023/03/08 06:13:34;;;;;;;2.10;1.90;;;12.00;48.50;;;;;;4984003;28;20458;-83
2023/03/08 06:16:01;;;;;;;2.07;1.97;;;12.00;48.50;;;;;;4982452;28;20476;-81
2023/03/08 06:18:29;;;;;;;2.60;2.27;;;12.00;48.50;;;;;;4979761;28;20451;-83
2023/03/08 06:20:58;;;;;;;3.17;2.20;;;12.00;48.60;;;;;;4980657;28;20442;-83
2023/03/08 06:23:26;;;;;;;2.10;2.00;;;12.00;48.40;;;;;;4978962;28;20487;-82
2023/03/08 06:25:56;;;;;;;2.60;2.40;;;12.00;48.50;;;;;;4973387;28;20477;-83
2023/03/08 06:28:24;;;;;;;2.33;2.23;;;12.00;48.50;;;;;;4976428;28;20454;-83
2023/03/08 06:30:52;;;;;;;2.43;2.23;;;12.00;48.50;;;;;;4969567;28;20468;-82
2023/03/08 06:33:21;;;;;;;2.07;1.97;;;12.00;48.60;;;;;;4973857;28;20455;-83
2023/03/08 06:35:55;;;;;;;3.30;2.97;;;12.00;48.50;;;;;;4980337;28;20472;-81
2023/03/08 06:38:23;;;;;;;5.30;3.57;;;12.10;48.60;;;;;;4978626;28;20489;-82
2023/03/08 06:40:52;;;;;;;4.27;3.87;;;12.00;48.60;;;;;;4975618;28;20472;-82
2023/03/08 06:43:21;;;;;;;6.03;4.03;;;12.00;48.50;;;;;;4988488;28;20474;-83
2023/03/08 06:45:50;;;;;;;4.77;4.27;;;12.00;48.50;;;;;;4981710;28;20485;-82
2023/03/08 06:48:18;;;;;;;8.53;4.70;;;12.10;48.60;;;;;;4979317;28;20481;-81
2023/03/08 06:50:46;;;;;;;6.73;5.10;;;12.10;48.60;;;;;;4975748;28;20454;-82
2023/03/08 06:53:15;;;;;;;7.13;5.40;;;12.10;48.60;;;;;;4967796;28;20462;-82
2023/03/08 06:55:42;;;;;;;5.73;4.93;;;12.10;48.70;;;;;;4982896;28;20492;-82
2023/03/08 06:58:11;;;;;;;8.47;5.80;;;12.10;48.70;;;;;;4976655;28;20455;-81
2023/03/08 07:00:40;;;;;;;8.20;6.23;;;12.10;48.70;;;;;;4981297;28;20464;-82
2023/03/08 07:03:07;;;;;;;8.53;6.17;;;12.20;48.90;;;;;;4978014;28;20483;-82
2023/03/08 07:05:35;;;;;;;8.60;6.40;;;12.20;48.90;;;;;;4982098;28;20513;-81
2023/03/08 07:08:07;;;;;;;9.67;6.20;;;12.20;49.00;;;;;;4988635;28;20462;-82
2023/03/08 07:10:36;;;;;;;8.67;6.43;;;12.30;49.00;;;;;;4987217;28;20454;-81
2023/03/08 07:13:11;;;;;;;10.07;6.60;;;12.30;49.00;;;;;;4973860;28;20481;-81
2023/03/08 07:15:41;;;;;;;9.90;6.63;;;12.20;49.00;;;;;;4978515;28;20486;-82
2023/03/08 07:18:09;;;;;;;10.47;7.00;;;12.30;49.10;;;;;;4970902;28;20454;-82
2023/03/08 07:20:36;;;;;;;10.33;7.00;;;12.30;49.10;;;;;;4980510;28;20457;-81
2023/03/08 07:23:04;;;;;;;9.90;7.10;;;12.30;49.10;;;;;;4977131;28;20445;-81
2023/03/08 07:25:32;;;;;;;11.13;6.90;;;12.40;49.20;;;;;;4975106;28;20590;-81
2023/03/08 07:28:00;;;;;;;9.90;6.90;;;12.40;49.20;;;;;;4979844;28;20466;-81
2023/03/08 07:30:28;;;;;;;10.00;6.63;;;12.50;49.20;;;;;;4973731;28;20455;-80
2023/03/08 07:33:01;;;;;;;9.00;6.83;;;12.50;49.20;;;;;;4978197;28;20454;-82
2023/03/08 07:35:29;;;;;;;9.53;6.93;;;12.50;49.10;;;;;;4982842;28;20470;-81
2023/03/08 07:38:24;;;;;;;10.57;7.33;;;12.50;49.20;;;;;;4982037;28;20453;-81
2023/03/08 07:40:55;;;;;;;11.10;7.43;;;12.60;49.20;;;;;;4908202;28;20565;-82
2023/03/08 07:43:23;;;;;;;10.30;6.87;;;12.60;49.20;;;;;;4980446;28;20474;-81
2023/03/08 07:45:50;;;;;;;11.67;7.23;;;12.60;49.20;;;;;;4981914;28;20485;-81
2023/03/08 07:48:20;;;;;;;9.77;6.87;;;12.60;49.20;;;;;;4976187;28;20461;-81
2023/03/08 07:50:48;;;;;;;9.87;7.40;;;12.70;49.40;;;;;;4977973;28;20500;-80
2023/03/08 07:53:17;;;;;;;9.10;6.43;;;12.60;49.20;;;;;;4984359;28;20541;-80
2023/03/08 07:55:45;;;;;;;10.30;7.47;;;12.70;49.30;;;;;;4980670;28;20532;-80
2023/03/08 07:58:13;;;;;;;10.40;7.40;;;12.70;49.20;;;;;;4978431;28;20462;-81
2023/03/08 08:00:42;;;;;;;10.33;7.00;;;12.70;49.20;;;;;;4976624;28;20468;-80
2023/03/08 08:03:10;;;;;;;10.50;6.77;;;12.80;49.40;;;;;;4977735;28;20464;-80
2023/03/08 08:05:39;;;;;;;9.40;6.93;;;12.80;49.30;;;;;;4976310;28;20481;-80
2023/03/08 08:08:08;;;;;;;11.87;7.67;;;12.80;49.20;;;;;;4978813;28;20561;-80
2023/03/08 08:10:36;;;;;;;11.57;7.50;;;12.80;49.30;;;;;;4982174;28;20461;-80
2023/03/08 08:13:03;;;;;;;9.77;7.30;;;12.90;49.40;;;;;;4981659;28;20458;-80
2023/03/08 08:15:32;;;;;;;12.67;8.30;;;12.90;49.40;;;;;;4988780;28;20465;-80
2023/03/08 08:18:11;;;;;;;12.03;7.93;;;12.90;49.60;;;;;;4983371;28;20458;-80
2023/03/08 08:20:41;;;;;;;10.87;7.50;;;12.90;49.40;;;;;;4981200;28;20453;-81
2023/03/08 08:23:09;;;;;;;13.20;8.00;;;13.00;49.50;;;;;;4974019;28;20455;-81
2023/03/08 08:25:38;;;;;;;10.50;7.50;;;13.00;49.60;;;;;;4976189;28;20485;-80
2023/03/08 08:28:06;;;;;;;11.93;7.23;;;13.00;49.70;;;;;;4971209;28;20578;-81
2023/03/08 08:30:34;;;;;;;13.40;7.73;;;13.00;49.70;;;;;;4973812;28;20461;-80
2023/03/08 08:33:02;;;;;;;10.80;7.80;;;13.10;49.80;;;;;;4973893;28;20488;-81
2023/03/08 08:35:30;;;;;;;10.57;7.30;;;13.10;49.90;;;;;;4977331;28;20475;-80
2023/03/08 08:38:11;;;;;;;9.83;7.40;;;13.20;50.30;;;;;;4971262;28;20446;-80
2023/03/08 08:40:39;;;;;;;12.23;7.87;;;13.20;49.70;;;;;;4974195;28;20460;-79
2023/03/08 08:43:07;;;;;;;10.70;7.73;;;13.20;49.50;;;;;;4973276;28;20465;-79
2023/03/08 08:45:34;;;;;;;23.43;13.17;;;13.30;49.50;;;;;;4978109;28;20489;-81
2023/03/08 08:48:03;;;;;;;25.37;15.77;;;13.20;47.60;;;;;;4969416;28;20466;-80
2023/03/08 08:50:30;;;;;;;26.03;15.43;;;9.60;46.70;;;;;;4968107;28;20453;-80
2023/03/08 08:52:59;;;;;;;26.70;16.20;;;8.40;52.20;;;;;;4961459;28;20455;-80
2023/03/08 08:55:28;;;;;;;32.23;17.37;;;7.30;53.70;;;;;;4969650;28;20474;-80
2023/03/08 08:58:08;;;;;;;26.10;16.43;;;7.40;55.20;;;;;;4969302;28;20456;-81
2023/03/08 09:00:36;;;;;;;33.30;17.33;;;6.80;53.50;;;;;;4960331;28;20451;-84
2023/03/08 09:03:04;;;;;;;23.63;14.43;;;6.80;57.00;;;;;;4966424;28;20450;-79
2023/03/08 09:05:33;;;;;;;25.37;16.00;;;8.20;61.50;;;;;;4965381;28;20489;-79
2023/03/08 09:08:01;;;;;;;25.20;14.63;;;9.40;59.20;;;;;;4962177;28;20454;-77
2023/03/08 09:10:33;;;;;;;24.10;15.10;;;10.30;55.90;;;;;;4960489;28;20538;-81
2023/03/08 09:13:01;;;;;;;22.80;14.00;;;11.00;54.10;;;;;;4968608;28;20450;-79
2023/03/08 09:18:12;;;;;;;22.87;14.17;;;12.00;51.60;;;;;;4962130;28;20451;-78
2023/03/08 09:20:40;;;;;;;23.00;14.13;;;12.40;50.70;;;;;;4962495;28;20514;-78
2023/03/08 09:23:11;;;;;;;18.83;12.80;;;12.70;50.20;;;;;;4970762;28;20454;-79
2023/03/08 09:25:56;;;;;;;19.90;13.37;;;13.00;49.90;;;;;;4966928;28;20482;-78
2023/03/08 09:28:26;;;;;;;20.33;12.80;;;13.20;49.40;;;;;;4957444;28;20554;-78
2023/03/08 09:30:54;;;;;;;18.37;12.70;;;13.40;49.90;;;;;;4990131;28;20473;-78
2023/03/08 09:33:23;;;;;;;21.43;12.50;;;13.60;49.20;;;;;;4972168;28;20479;-78
2023/03/08 09:35:57;;;;;;;16.97;12.20;;;13.80;49.00;;;;;;4960139;28;20467;-78
2023/03/08 09:38:25;;;;;;;17.93;11.53;;;13.90;48.90;;;;;;4964598;28;20447;-78
2023/03/08 09:41:02;;;;;;;16.63;11.73;;;14.10;48.80;;;;;;4973699;28;20481;-78
2023/03/08 09:43:38;;;;;;;17.97;11.80;;;14.20;48.70;;;;;;4973118;28;20452;-79
2023/03/08 09:46:09;;;;;;;18.97;12.00;;;14.30;48.80;;;;;;4957075;28;20562;-79
2023/03/08 09:48:43;;;;;;;14.20;10.83;;;14.40;48.60;;;;;;4972977;28;20474;-78
2023/03/08 09:51:14;;;;;;;16.60;11.30;;;14.50;48.50;;;;;;4967632;28;20509;-77
2023/03/08 09:53:43;;;;;;;16.03;10.80;;;14.60;48.60;;;;;;4966242;28;20454;-76
2023/03/08 09:56:19;;;;;;;13.30;9.93;;;14.70;48.50;;;;;;4966029;28;20474;-79
2023/03/08 09:58:49;;;;;;;12.73;10.30;;;14.80;48.50;;;;;;4969360;28;20456;-78
2023/03/08 10:01:27;;;;;;;15.23;9.57;;;14.90;48.60;;;;;;4967436;28;20459;-78
2023/03/08 10:04:34;;;;;;;12.30;9.77;;;15.00;48.50;;;;;;4966689;28;20461;-78
2023/03/08 10:07:19;;;;;;;11.63;9.23;;;15.10;48.60;;;;;;4950098;28;20445;-78
2023/03/08 10:09:50;;;;;;;13.20;9.77;;;15.20;48.60;;;;;;4965827;28;20473;-78
2023/03/08 10:12:23;;;;;;;15.37;9.93;;;15.20;48.50;;;;;;4964453;28;20988;-78
2023/03/08 10:15:10;;;;;;;11.90;8.97;;;15.30;48.60;;;;;;4970457;28;20453;-79
2023/03/08 10:17:53;;;;;;;11.37;8.57;;;15.30;48.50;;;;;;4963036;28;20447;-78
2023/03/08 10:20:23;;;;;;;11.33;8.63;;;15.30;48.60;;;;;;4967584;28;20445;-78
2023/03/08 10:23:00;;;;;;;13.87;8.73;;;15.30;48.60;;;;;;4966880;28;20450;-77
2023/03/08 10:25:30;;;;;;;15.70;8.00;;;15.30;48.60;;;;;;4960935;28;20486;-77
2023/03/08 10:28:01;;;;;;;11.20;8.33;;;15.30;48.70;;;;;;4969024;28;20447;-77
2023/03/08 10:30:32;;;;;;;11.20;7.93;;;15.30;49.00;;;;;;4963125;28;20439;-77
2023/03/08 10:33:01;;;;;;;10.13;8.40;;;15.50;49.00;;;;;;4964617;28;20547;-77
2023/03/08 10:35:33;;;;;;;9.83;7.47;;;15.50;49.00;;;;;;4962953;28;20474;-77
2023/03/08 10:38:01;;;;;;;9.17;7.53;;;15.70;49.00;;;;;;4964711;28;20432;-76
2023/03/08 10:40:29;;;;;;;9.53;7.40;;;15.70;49.00;;;;;;4959701;28;20447;-77
2023/03/08 10:43:02;;;;;;;9.07;7.50;;;15.80;48.80;;;;;;4964572;28;20482;-76
2023/03/08 10:45:31;;;;;;;11.70;7.87;;;15.90;48.90;;;;;;4963400;28;20489;-77
2023/03/08 10:48:00;;;;;;;8.77;7.00;;;16.10;48.80;;;;;;4964519;28;20438;-77
2023/03/08 10:50:28;;;;;;;10.10;7.53;;;16.20;49.50;;;;;;4968579;28;20458;-77
2023/03/08 10:53:06;;;;;;;8.93;7.40;;;16.30;48.80;;;;;;4967342;28;20446;-77
2023/03/08 10:55:40;;;;;;;8.33;7.00;;;16.40;48.80;;;;;;4960358;28;20461;-77
2023/03/08 10:58:32;;;;;;;7.20;6.20;;;16.60;48.80;;;;;;4970555;28;20458;-76
2023/03/08 11:01:02;;;;;;;7.83;6.80;;;16.70;48.70;;;;;;4964108;28;20547;-78
2023/03/08 11:03:30;;;;;;;9.53;7.20;;;16.80;48.70;;;;;;4960465;28;20450;-78
2023/03/08 11:05:59;;;;;;;9.43;6.60;;;16.90;48.40;;;;;;4960483;28;20474;-77
2023/03/08 11:08:29;;;;;;;8.83;6.17;;;16.90;48.30;;;;;;4971652;28;20458;-77
2023/03/08 11:11:05;;;;;;;6.80;6.17;;;16.90;48.50;;;;;;4969132;28;20470;-78
2023/03/08 11:13:36;;;;;;;9.13;6.80;;;17.00;48.40;;;;;;4973964;28;20454;-77
2023/03/08 11:16:40;;;;;;;8.37;7.47;;;17.10;48.40;;;;;;4977260;28;20461;-78
2023/03/08 11:19:16;;;;;;;9.77;7.70;;;17.40;48.70;;;;;;4955945;28;20549;-77
2023/03/08 11:21:50;;;;;;;8.20;7.03;;;18.00;48.50;;;;;;4969645;28;20454;-77
2023/03/08 11:24:27;;;;;;;11.50;8.13;;;18.50;48.30;;;;;;4974081;28;20506;-77
2023/03/08 11:27:02;;;;;;;10.20;8.00;;;18.90;47.70;;;;;;4964301;28;20537;-79
2023/03/08 11:29:38;;;;;;;8.27;7.20;;;19.30;47.30;;;;;;4978131;28;20486;-78
2023/03/08 11:32:13;;;;;;;10.90;7.70;;;19.50;46.50;;;;;;4971071;28;20447;-78
2023/03/08 11:34:53;;;;;;;8.90;7.37;;;20.00;46.20;;;;;;4969676;28;20470;-78
2023/03/08 11:37:25;;;;;;;10.13;7.20;;;20.50;45.80;;;;;;4979198;28;20476;-78
2023/03/08 11:39:54;;;;;;;10.07;8.17;;;20.80;45.10;;;;;;4970716;28;20450;-77
2023/03/08 11:42:27;;;;;;;9.60;7.40;;;21.20;44.90;;;;;;4961231;28;20463;-77
2023/03/08 11:45:04;;;;;;;8.00;6.73;;;21.90;44.80;;;;;;4967414;28;20500;-79
2023/03/08 11:53:56;;;;;;;7.07;6.20;;;22.70;42.60;;;;;;4914100;29;20448;-77
2023/03/08 11:56:42;;;;;;;6.47;5.87;;;22.70;42.30;;;;;;4910041;29;20455;-77
2023/03/08 11:59:31;;;;;;;9.40;6.53;;;22.70;42.10;;;;;;4916993;29;20471;-79
2023/03/08 12:02:12;;;;;;;7.17;5.97;;;22.80;42.10;;;;;;4912976;29;20415;-78
2023/03/08 12:04:48;;;;;;;6.60;5.93;;;22.70;42.10;;;;;;4909001;29;20484;-78
2023/03/08 12:07:20;;;;;;;7.47;6.60;;;22.80;42.40;;;;;;4910182;29;20436;-77
2023/03/08 12:09:54;;;;;;;7.27;6.50;;;23.20;42.50;;;;;;4912963;29;20458;-78
2023/03/08 12:12:27;;;;;;;7.37;6.17;;;23.90;41.80;;;;;;4919142;29;20498;-78
2023/03/08 12:18:32;;;;;;;7.10;6.40;;;24.80;40.40;;;;;;4927284;29;20444;-79
2023/03/08 12:24:02;;;;;;;6.13;5.53;;;25.20;39.00;;;;;;4913959;29;20423;-79
2023/03/08 12:29:26;;;;;;;6.07;5.20;;;25.00;38.90;;;;;;4918308;29;20516;-78
2023/03/08 12:32:00;;;;;;;7.10;6.40;;;24.70;39.10;;;;;;4952084;28;20446;-78
2023/03/08 12:34:42;;;;;;;5.90;5.30;;;24.40;39.20;;;;;;4957075;28;20471;-79
2023/03/08 12:37:24;;;;;;;6.33;5.73;;;24.10;39.60;;;;;;4951749;28;20821;-78
2023/03/08 12:40:01;;;;;;;5.67;5.17;;;23.70;40.10;;;;;;4954860;29;20457;-78
2023/03/08 12:46:45;;;;;;;6.30;5.53;;;23.00;40.70;;;;;;4952003;28;20438;-78
2023/03/08 12:49:50;;;;;;;5.50;5.00;;;22.60;41.40;;;;;;4950855;28;20429;-79
2023/03/08 13:00:30;;;;;;;8.97;5.50;;;22.10;42.40;;;;;;4901825;29;20415;-79
2023/03/08 13:07:45;;;;;;;5.33;4.83;;;22.00;42.90;;;;;;4970134;28;20470;-78
2023/03/08 13:11:01;;;;;;;5.50;5.00;;;22.00;42.90;;;;;;4934750;29;20444;-79
2023/03/08 13:13:54;;;;;;;5.30;4.77;;;21.90;43.20;;;;;;4956675;28;20530;-78
2023/03/08 13:16:47;;;;;;;5.30;4.10;;;21.70;43.00;;;;;;4992804;28;20476;-78
2023/03/08 13:19:32;;;;;;;4.70;4.00;;;21.60;42.80;;;;;;4992495;28;20481;-78
2023/03/08 13:22:23;;;;;;;7.90;4.73;;;21.40;43.10;;;;;;4980485;28;21056;-78
2023/03/08 13:25:19;;;;;;;5.00;4.50;;;21.30;43.30;;;;;;5032963;23;20484;-77
2023/03/08 13:27:51;;;;;;;6.67;4.90;;;21.30;43.50;;;;;;5008325;28;20431;-78
2023/03/08 13:30:25;;;;;;;4.77;4.37;;;21.30;43.60;;;;;;5018065;28;20436;-79
2023/03/08 13:32:54;;;;;;;4.73;4.33;;;21.30;43.30;;;;;;5007615;28;20426;-79
2023/03/08 13:39:27;;;;;;;4.67;4.27;;;20.90;43.70;;;;;;4952273;28;20451;-78
2023/03/08 13:45:46;;;;;;;4.30;3.90;;;20.70;44.10;;;;;;5033116;28;20523;-79